createdAt,value
2018-06-05T00:02:17.458Z,29.77
2018-06-05T00:05:20.361Z,28.83
2018-06-05T00:08:23.280Z,28.97
2018-06-05T00:11:26.226Z,30.40
2018-06-05T00:14:30.032Z,32.03
2018-06-05T00:17:32.956Z,34.23
2018-06-05T00:20:35.907Z,37.43
2018-06-05T00:23:38.843Z,30.27
2018-06-05T00:26:41.829Z,30.70
2018-06-05T00:29:44.801Z,33.27
2018-06-05T00:32:47.789Z,34.53
2018-06-05T00:35:50.853Z,35.80
2018-06-05T00:38:53.774Z,30.37
2018-06-05T00:41:56.680Z,41.90
2018-06-05T00:44:59.707Z,30.93
2018-06-05T00:48:02.625Z,31.50
2018-06-05T00:51:22.727Z,30.50
2018-06-05T00:54:25.625Z,36.63
2018-06-05T00:57:28.558Z,34.67
2018-06-05T01:00:31.620Z,29.40
2018-06-05T01:03:34.638Z,36.93
2018-06-05T01:06:37.705Z,36.77
2018-06-05T01:09:40.652Z,31.60
2018-06-05T01:12:43.535Z,34.03
2018-06-05T01:15:46.529Z,35.57
2018-06-05T01:18:49.553Z,30.87
2018-06-05T01:21:53.196Z,33.07
2018-06-05T01:24:56.740Z,29.10
2018-06-05T01:27:59.805Z,30.80
2018-06-05T01:31:02.737Z,34.47
2018-06-05T01:34:05.649Z,41.13
2018-06-05T01:37:08.593Z,30.27
2018-06-05T01:40:13.446Z,39.13
2018-06-05T01:43:16.616Z,37.13
2018-06-05T01:46:22.034Z,36.43
2018-06-05T01:49:29.623Z,33.10
2018-06-05T01:52:34.585Z,35.13
2018-06-05T01:55:37.515Z,36.20
2018-06-05T01:58:40.805Z,37.17
2018-06-05T02:01:43.965Z,36.87
2018-06-05T02:04:46.911Z,34.37
2018-06-05T02:07:49.812Z,40.80
2018-06-05T02:10:52.836Z,36.87
2018-06-05T02:13:55.749Z,35.97
2018-06-05T02:16:58.614Z,36.83
2018-06-05T02:20:01.548Z,36.93
2018-06-05T02:23:04.501Z,31.77
2018-06-05T02:26:07.415Z,39.80
2018-06-05T02:29:10.330Z,41.03
2018-06-05T02:32:13.256Z,40.37
2018-06-05T02:35:16.177Z,38.63
2018-06-05T02:38:19.272Z,38.73
2018-06-05T02:41:22.170Z,37.03
2018-06-05T02:44:25.072Z,38.23
2018-06-05T02:47:28.992Z,38.73
2018-06-05T02:50:36.022Z,34.30
2018-06-05T02:53:43.221Z,37.00
2018-06-05T02:56:50.309Z,34.90
2018-06-05T02:59:53.744Z,44.40
2018-06-05T03:02:58.258Z,41.57
2018-06-05T03:06:02.901Z,36.37
2018-06-05T03:09:08.244Z,40.07
2018-06-05T03:12:11.555Z,37.40
2018-06-05T03:15:28.253Z,41.70
2018-06-05T03:18:34.353Z,43.60
2018-06-05T03:21:38.185Z,42.17
2018-06-05T03:24:41.614Z,51.73
2018-06-05T03:27:51.690Z,51.90
2018-06-05T03:30:55.656Z,58.30
2018-06-05T03:33:59.605Z,47.63
2018-06-05T03:37:03.391Z,49.30
2018-06-05T03:40:07.970Z,50.57
2018-06-05T03:43:12.482Z,51.83
2018-06-05T03:46:16.730Z,50.20
2018-06-05T03:49:19.687Z,51.27
2018-06-05T03:52:22.577Z,57.30
2018-06-05T03:55:25.521Z,54.97
2018-06-05T03:58:28.396Z,54.47
2018-06-05T04:01:31.429Z,58.87
2018-06-05T04:04:35.148Z,56.73
2018-06-05T04:07:38.080Z,60.00
2018-06-05T04:10:41.012Z,54.90
2018-06-05T04:13:44.235Z,57.20
2018-06-05T04:16:49.921Z,72.97
2018-06-05T04:19:53.104Z,62.10
2018-06-05T04:22:56.080Z,62.67
2018-06-05T04:25:58.993Z,69.83
2018-06-05T04:29:02.008Z,63.23
2018-06-05T04:32:05.008Z,60.90
2018-06-05T04:35:07.887Z,66.37
2018-06-05T04:38:11.073Z,61.07
2018-06-05T04:41:14.896Z,65.77
2018-06-05T04:44:17.821Z,66.63
2018-06-05T04:47:20.719Z,63.83
2018-06-05T04:50:23.999Z,69.50
2018-06-05T04:53:26.945Z,75.73
2018-06-05T04:56:30.021Z,68.37
2018-06-05T04:59:32.962Z,79.53
2018-06-05T05:02:35.937Z,68.30
2018-06-05T05:05:38.955Z,73.90
2018-06-05T05:08:42.068Z,74.13
2018-06-05T05:11:45.546Z,79.20
2018-06-05T05:14:48.465Z,83.93
2018-06-05T05:17:51.408Z,72.90
2018-06-05T05:20:54.498Z,76.23
2018-06-05T05:23:57.439Z,75.80
2018-06-05T05:27:00.344Z,82.20
2018-06-05T05:30:03.802Z,80.20
2018-06-05T05:33:06.808Z,87.73
2018-06-05T05:36:09.894Z,92.13
2018-06-05T05:39:12.796Z,95.87
2018-06-05T05:42:16.387Z,91.43
2018-06-05T05:45:19.617Z,82.03
2018-06-05T05:48:22.635Z,94.23
2018-06-05T05:51:26.471Z,94.33
2018-06-05T05:54:29.449Z,114.97
2018-06-05T05:57:32.427Z,103.80
2018-06-05T06:00:35.361Z,103.63
2018-06-05T06:03:38.280Z,105.00
2018-06-05T06:06:41.221Z,101.00
2018-06-05T06:09:44.882Z,100.87
2018-06-05T06:12:47.831Z,91.37
2018-06-05T06:15:50.817Z,90.13
2018-06-05T06:18:53.701Z,88.87
2018-06-05T06:21:56.644Z,91.33
2018-06-05T06:24:59.639Z,90.97
2018-06-05T06:28:02.533Z,84.53
2018-06-05T06:31:05.541Z,87.00
2018-06-05T06:34:08.449Z,96.27
2018-06-05T06:37:11.354Z,87.97
2018-06-05T06:40:14.277Z,88.20
2018-06-05T06:43:17.192Z,85.13
2018-06-05T06:46:20.153Z,79.17
2018-06-05T06:49:23.116Z,75.03
2018-06-05T06:52:26.002Z,83.87
2018-06-05T06:55:28.973Z,71.80
2018-06-05T06:58:32.000Z,72.17
2018-06-05T07:01:34.930Z,82.60
2018-06-05T07:04:37.833Z,90.63
2018-06-05T07:07:40.759Z,93.07
2018-06-05T07:10:43.650Z,75.53
2018-06-05T07:13:46.537Z,78.73
2018-06-05T07:16:49.469Z,85.63
2018-06-05T07:19:52.480Z,70.10
2018-06-05T07:22:55.399Z,83.40
2018-06-05T07:25:58.332Z,66.97
2018-06-05T07:29:01.249Z,76.40
2018-06-05T07:32:04.215Z,71.80
2018-06-05T07:35:07.163Z,70.93
2018-06-05T07:38:10.096Z,81.60
2018-06-05T07:41:12.992Z,95.20
2018-06-05T07:44:15.932Z,74.50
2018-06-05T07:47:18.858Z,73.93
2018-06-05T07:50:21.750Z,68.67
2018-06-05T07:53:24.668Z,79.37
2018-06-05T07:56:27.598Z,74.33
2018-06-05T07:59:30.514Z,73.23
2018-06-05T08:02:33.387Z,80.40
2018-06-05T08:05:36.301Z,84.03
2018-06-05T08:08:39.237Z,75.13
2018-06-05T08:11:42.224Z,73.00
2018-06-05T08:14:45.144Z,75.10
2018-06-05T08:17:48.053Z,78.67
2018-06-05T08:20:50.954Z,73.53
2018-06-05T08:23:53.908Z,82.23
2018-06-05T08:26:56.824Z,84.37
2018-06-05T08:29:59.718Z,82.80
2018-06-05T08:33:02.677Z,89.80
2018-06-05T08:36:05.604Z,90.43
2018-06-05T08:39:08.602Z,116.50
2018-06-05T08:42:11.501Z,106.83
2018-06-05T08:45:14.484Z,105.17
2018-06-05T08:48:17.377Z,103.00
2018-06-05T08:51:20.318Z,115.87
2018-06-05T08:54:23.245Z,108.83
2018-06-05T08:57:26.177Z,91.37
2018-06-05T09:00:29.097Z,100.27
2018-06-05T09:03:31.994Z,117.93
2018-06-05T09:06:34.917Z,108.97
2018-06-05T09:09:37.843Z,111.30
2018-06-05T09:12:40.766Z,118.30
2018-06-05T09:15:43.676Z,103.40
2018-06-05T09:18:46.576Z,113.87
2018-06-05T09:21:50.369Z,100.73
2018-06-05T09:24:53.301Z,106.60
2018-06-05T09:27:56.237Z,113.07
2018-06-05T09:30:59.167Z,117.73
2018-06-05T09:34:02.110Z,117.73
2018-06-05T09:37:05.021Z,121.00
2018-06-05T09:40:08.002Z,103.70
2018-06-05T09:43:10.945Z,96.30
2018-06-05T09:46:13.842Z,94.93
2018-06-05T09:49:16.745Z,88.90
2018-06-05T09:52:19.661Z,71.07
2018-06-05T09:55:22.589Z,79.27
2018-06-05T09:58:25.698Z,72.83
2018-06-05T10:01:28.415Z,71.63
2018-06-05T10:04:31.372Z,69.23
2018-06-05T10:07:34.301Z,67.87
2018-06-05T10:10:37.201Z,65.70
2018-06-05T10:13:40.140Z,73.53
2018-06-05T10:16:43.054Z,68.07
2018-06-05T10:19:45.960Z,69.20
2018-06-05T10:22:48.872Z,68.30
2018-06-05T10:25:51.802Z,71.07
2018-06-05T10:28:54.682Z,62.83
2018-06-05T10:31:57.615Z,66.27
2018-06-05T10:35:00.514Z,58.30
2018-06-05T10:38:03.713Z,65.80
2018-06-05T10:41:06.666Z,59.83
2018-06-05T10:44:09.604Z,61.63
2018-06-05T10:47:12.508Z,57.37
2018-06-05T10:50:15.440Z,66.83
2018-06-05T10:53:18.387Z,57.70
2018-06-05T10:56:21.346Z,58.90
2018-06-05T10:59:24.875Z,62.93
2018-06-05T11:02:27.807Z,59.83
2018-06-05T11:05:30.718Z,55.70
2018-06-05T11:08:33.610Z,60.80
2018-06-05T11:11:36.529Z,56.10
2018-06-05T11:14:39.445Z,58.93
2018-06-05T11:17:42.364Z,54.47
2018-06-05T11:20:45.273Z,52.77
2018-06-05T11:23:48.236Z,60.87
2018-06-05T11:26:51.153Z,61.73
2018-06-05T11:29:54.076Z,54.87
2018-06-05T11:32:56.998Z,55.20
2018-06-05T11:35:59.924Z,60.10
2018-06-05T11:39:04.109Z,58.60
2018-06-05T11:42:07.010Z,57.47
2018-06-05T11:45:09.971Z,54.00
2018-06-05T11:48:12.902Z,74.30
2018-06-05T11:51:15.866Z,66.67
2018-06-05T11:54:18.820Z,63.97
2018-06-05T11:57:21.766Z,69.40
2018-06-05T12:00:24.712Z,63.97
2018-06-05T12:03:27.630Z,69.60
2018-06-05T12:06:30.545Z,72.30
2018-06-05T12:09:33.541Z,71.60
2018-06-05T12:12:36.469Z,75.37
2018-06-05T12:15:39.413Z,83.57
2018-06-05T12:18:42.324Z,56.03
2018-06-05T12:21:45.240Z,51.33
2018-06-05T12:24:48.131Z,53.73
2018-06-05T12:27:51.092Z,55.07
2018-06-05T12:30:54.021Z,50.40
2018-06-05T12:33:56.951Z,44.03
2018-06-05T12:36:59.969Z,54.07
2018-06-05T12:40:02.858Z,69.60
2018-06-05T12:43:05.892Z,53.20
2018-06-05T12:46:08.787Z,51.00
2018-06-05T12:49:11.740Z,56.33
2018-06-05T12:52:14.735Z,53.70
2018-06-05T12:55:17.639Z,52.43
2018-06-05T12:58:20.600Z,54.33
2018-06-05T13:01:23.516Z,56.07
2018-06-05T13:04:26.461Z,47.23
2018-06-05T13:07:30.166Z,59.13
2018-06-05T13:10:33.547Z,52.00
2018-06-05T13:13:36.829Z,48.63
2018-06-05T13:16:40.623Z,49.60
2018-06-05T13:19:43.692Z,47.57
2018-06-05T13:22:46.758Z,45.40
2018-06-05T13:25:49.613Z,47.13
2018-06-05T13:28:52.549Z,44.83
2018-06-05T13:31:55.548Z,53.07
2018-06-05T13:34:58.487Z,45.20
2018-06-05T13:38:01.468Z,41.97
2018-06-05T13:41:04.393Z,43.43
2018-06-05T13:44:07.438Z,46.63
2018-06-05T13:47:10.346Z,48.63
2018-06-05T13:50:13.261Z,45.43
2018-06-05T13:53:16.220Z,48.47
2018-06-05T13:56:19.131Z,52.03
2018-06-05T13:59:22.044Z,61.60
2018-06-05T14:02:24.979Z,50.83
2018-06-05T14:05:27.939Z,59.57
2018-06-05T14:08:30.858Z,56.63
2018-06-05T14:11:33.759Z,82.50
2018-06-05T14:14:36.717Z,50.93
2018-06-05T14:17:39.652Z,48.47
2018-06-05T14:20:42.620Z,48.77
2018-06-05T14:23:45.538Z,55.80
2018-06-05T14:26:48.478Z,56.30
2018-06-05T14:29:51.625Z,54.60
2018-06-05T14:32:54.537Z,54.07
2018-06-05T14:35:57.483Z,51.33
2018-06-05T14:39:00.500Z,56.27
2018-06-05T14:42:03.442Z,47.83
2018-06-05T14:45:06.408Z,52.67
2018-06-05T14:48:09.416Z,51.87
2018-06-05T14:51:12.325Z,48.17
2018-06-05T14:54:15.260Z,58.50
2018-06-05T14:57:18.161Z,58.67
2018-06-05T15:00:21.063Z,65.17
2018-06-05T15:03:23.974Z,58.97
2018-06-05T15:06:26.928Z,54.87
2018-06-05T15:09:29.833Z,55.07
2018-06-05T15:12:32.744Z,52.73
2018-06-05T15:15:35.669Z,55.63
2018-06-05T15:18:38.558Z,54.63
2018-06-05T15:21:41.488Z,70.73
2018-06-05T15:24:44.384Z,54.93
2018-06-05T15:27:47.344Z,54.73
2018-06-05T15:30:50.320Z,47.30
2018-06-05T15:33:53.297Z,59.53
2018-06-05T15:36:56.256Z,53.63
2018-06-05T15:39:59.153Z,50.33
2018-06-05T15:43:02.063Z,56.00
2018-06-05T15:46:05.167Z,47.13
2018-06-05T15:49:08.094Z,47.83
2018-06-05T15:52:11.005Z,80.83
2018-06-05T15:55:13.944Z,46.60
2018-06-05T15:58:16.869Z,42.80
2018-06-05T16:01:19.886Z,52.50
2018-06-05T16:04:22.869Z,47.00
2018-06-05T16:07:25.804Z,55.33
2018-06-05T16:10:28.750Z,47.87
2018-06-05T16:13:31.678Z,81.00
2018-06-05T16:16:34.577Z,68.80
2018-06-05T16:19:37.492Z,53.33
2018-06-05T16:22:40.430Z,51.33
2018-06-05T16:25:43.369Z,50.77
2018-06-05T16:28:46.257Z,53.77
2018-06-05T16:31:49.276Z,50.20
2018-06-05T16:34:52.190Z,39.27
2018-06-05T16:37:55.342Z,43.20
2018-06-05T16:40:58.733Z,48.10
2018-06-05T16:44:02.055Z,50.33
2018-06-05T16:47:05.089Z,49.13
2018-06-05T16:50:08.403Z,54.50
2018-06-05T16:53:11.344Z,36.70
2018-06-05T16:56:14.259Z,47.87
2018-06-05T16:59:17.230Z,37.03
2018-06-05T17:02:21.233Z,56.03
2018-06-05T17:05:24.179Z,57.83
2018-06-05T17:08:27.402Z,44.57
2018-06-05T17:11:30.611Z,38.00
2018-06-05T17:14:33.926Z,56.40
2018-06-05T17:17:36.893Z,46.10
2018-06-05T17:20:40.550Z,42.00
2018-06-05T17:23:43.918Z,41.53
2018-06-05T17:26:48.017Z,39.13
2018-06-05T17:29:51.009Z,44.27
2018-06-05T17:32:54.348Z,36.20
2018-06-05T17:35:58.158Z,33.73
2018-06-05T17:39:02.065Z,45.97
2018-06-05T17:42:05.434Z,35.70
2018-06-05T17:45:09.147Z,45.67
2018-06-05T17:48:12.710Z,49.97
2018-06-05T17:51:16.312Z,39.37
2018-06-05T17:54:19.392Z,48.77
2018-06-05T17:57:22.953Z,45.40
2018-06-05T18:00:26.339Z,40.53
2018-06-05T18:03:29.666Z,41.27
2018-06-05T18:06:33.189Z,46.53
2018-06-05T18:09:36.309Z,42.10
2018-06-05T18:12:39.235Z,53.97
2018-06-05T18:15:42.836Z,50.30
2018-06-05T18:18:47.052Z,47.40
2018-06-05T18:21:51.017Z,61.97
2018-06-05T18:24:54.516Z,53.30
2018-06-05T18:27:57.709Z,55.67
2018-06-05T18:31:01.150Z,51.50
2018-06-05T18:34:04.713Z,50.47
2018-06-05T18:37:08.611Z,47.70
2018-06-05T18:40:11.964Z,47.87
2018-06-05T18:43:15.812Z,45.30
2018-06-05T18:46:19.254Z,60.43
2018-06-05T18:49:22.828Z,48.00
2018-06-05T18:52:26.378Z,50.40
2018-06-05T18:55:29.915Z,49.83
2018-06-05T18:58:33.523Z,54.10
2018-06-05T19:01:36.711Z,51.50
2018-06-05T19:04:40.161Z,51.60
2018-06-05T19:07:43.857Z,52.40
2018-06-05T19:10:47.077Z,56.40
2018-06-05T19:13:50.347Z,51.47
2018-06-05T19:16:53.354Z,49.00
2018-06-05T19:19:56.907Z,44.67
2018-06-05T19:23:00.174Z,49.17
2018-06-05T19:26:03.420Z,52.57
2018-06-05T19:29:07.125Z,48.33
2018-06-05T19:32:10.522Z,49.23
2018-06-05T19:35:13.734Z,44.60
2018-06-05T19:38:17.110Z,43.43
2018-06-05T19:41:22.217Z,51.60
2018-06-05T19:44:26.582Z,47.33
2018-06-05T19:47:29.984Z,41.57
2018-06-05T19:50:33.061Z,43.47
2018-06-05T19:53:36.712Z,45.20
2018-06-05T19:56:40.387Z,46.17
2018-06-05T19:59:44.009Z,45.23
2018-06-05T20:02:48.116Z,49.00
2018-06-05T20:05:50.507Z,49.13
2018-06-05T20:08:53.901Z,43.60
2018-06-05T20:11:58.205Z,52.03
2018-06-05T20:15:01.475Z,47.93
2018-06-05T20:18:04.776Z,46.53
2018-06-05T20:21:08.005Z,46.73
2018-06-05T20:24:11.787Z,47.20
2018-06-05T20:27:15.555Z,49.53
2018-06-05T20:30:19.014Z,46.70
2018-06-05T20:33:22.355Z,100.50
2018-06-05T20:36:25.380Z,208.97
2018-06-05T20:39:28.707Z,47.13
2018-06-05T20:42:31.615Z,43.27
2018-06-05T20:45:34.874Z,47.57
2018-06-05T20:48:37.798Z,41.00
2018-06-05T20:51:40.757Z,45.13
2018-06-05T20:54:43.675Z,38.90
2018-06-05T20:57:46.616Z,39.90
2018-06-05T21:00:49.569Z,40.87
2018-06-05T21:03:52.515Z,48.80
2018-06-05T21:06:55.442Z,47.10
2018-06-05T21:09:58.801Z,47.43
2018-06-05T21:13:01.738Z,48.90
2018-06-05T21:16:04.704Z,41.77
2018-06-05T21:19:07.618Z,42.03
2018-06-05T21:22:11.233Z,40.33
2018-06-05T21:25:14.268Z,43.07
2018-06-05T21:28:17.195Z,56.30
2018-06-05T21:31:20.185Z,38.17
2018-06-05T21:34:23.172Z,44.33
2018-06-05T21:37:26.250Z,40.30
2018-06-05T21:40:29.228Z,47.80
2018-06-05T21:43:32.354Z,39.27
2018-06-05T21:46:35.694Z,41.00
2018-06-05T21:49:38.877Z,42.97
2018-06-05T21:52:41.818Z,49.83
2018-06-05T21:55:44.758Z,38.90
2018-06-05T21:58:47.749Z,44.60
2018-06-05T22:01:50.694Z,42.43
2018-06-05T22:04:53.638Z,43.33
2018-06-05T22:08:00.538Z,48.23
2018-06-05T22:11:03.557Z,40.83
2018-06-05T22:14:08.778Z,41.00
2018-06-05T22:17:11.677Z,43.53
2018-06-05T22:20:14.595Z,41.73
2018-06-05T22:23:17.498Z,37.57
2018-06-05T22:26:20.928Z,38.40
2018-06-05T22:29:24.871Z,40.77
2018-06-05T22:32:27.814Z,55.87
2018-06-05T22:35:30.761Z,41.27
2018-06-05T22:38:33.677Z,35.07
2018-06-05T22:41:36.600Z,42.93
2018-06-05T22:44:39.506Z,40.67
2018-06-05T22:47:42.429Z,43.73
2018-06-05T22:50:45.340Z,41.27
2018-06-05T22:53:48.263Z,39.43
2018-06-05T22:56:51.240Z,48.40
2018-06-05T22:59:54.161Z,38.27
2018-06-05T23:02:57.091Z,46.93
2018-06-05T23:05:59.989Z,39.30
2018-06-05T23:09:03.550Z,38.50
2018-06-05T23:12:06.478Z,44.00
2018-06-05T23:15:09.406Z,44.30
2018-06-05T23:18:12.300Z,40.77
2018-06-05T23:21:15.244Z,41.70
2018-06-05T23:24:18.171Z,46.83
2018-06-05T23:27:21.166Z,44.17
2018-06-05T23:30:24.048Z,45.13
2018-06-05T23:33:26.992Z,45.27
2018-06-05T23:36:29.925Z,40.40
2018-06-05T23:39:32.862Z,45.57
2018-06-05T23:42:35.801Z,43.03
2018-06-05T23:45:38.745Z,41.63
2018-06-05T23:48:41.729Z,44.40
2018-06-05T23:51:44.661Z,43.67
2018-06-05T23:54:47.575Z,60.33
2018-06-05T23:57:50.517Z,50.40
